createdAt,value
2019-04-07T00:01:43.435Z,9.20
2019-04-07T00:03:46.200Z,9.10
2019-04-07T00:05:49.410Z,9.00
2019-04-07T00:07:52.261Z,9.00
2019-04-07T00:09:55.077Z,8.90
2019-04-07T00:11:58.233Z,8.80
2019-04-07T00:14:01.058Z,8.80
2019-04-07T00:16:04.549Z,8.70
2019-04-07T00:18:07.785Z,8.60
2019-04-07T00:20:10.946Z,8.60
2019-04-07T00:22:13.754Z,8.60
2019-04-07T00:24:16.666Z,8.80
2019-04-07T00:26:19.551Z,8.80
2019-04-07T00:28:22.377Z,8.70
2019-04-07T00:30:25.229Z,8.70
2019-04-07T00:32:28.439Z,8.60
2019-04-07T00:34:31.274Z,8.50
2019-04-07T00:36:34.197Z,8.50
2019-04-07T00:38:37.134Z,8.60
2019-04-07T00:40:40.396Z,8.60
2019-04-07T00:42:43.229Z,8.50
2019-04-07T00:44:46.576Z,8.50
2019-04-07T00:46:49.908Z,8.50
2019-04-07T00:48:52.945Z,8.40
2019-04-07T00:50:55.915Z,8.50
2019-04-07T00:52:59.217Z,8.60
2019-04-07T00:55:02.311Z,8.60
2019-04-07T00:57:05.437Z,8.50
2019-04-07T00:59:08.790Z,8.30
2019-04-07T01:01:13.251Z,8.20
2019-04-07T01:03:16.078Z,8.10
2019-04-07T01:05:18.896Z,8.10
2019-04-07T01:07:21.771Z,8.20
2019-04-07T01:09:24.561Z,8.20
2019-04-07T01:11:27.682Z,8.20
2019-04-07T01:13:30.777Z,8.20
2019-04-07T01:15:33.985Z,8.10
2019-04-07T01:17:37.005Z,8.10
2019-04-07T01:19:40.013Z,8.20
2019-04-07T01:21:42.800Z,8.20
2019-04-07T01:23:45.680Z,8.20
2019-04-07T01:25:48.537Z,8.20
2019-04-07T01:27:51.335Z,8.30
2019-04-07T01:29:54.202Z,8.30
2019-04-07T01:31:56.944Z,8.30
2019-04-07T01:33:59.826Z,8.30
2019-04-07T01:36:02.551Z,8.20
2019-04-07T01:38:05.919Z,8.10
2019-04-07T01:40:09.128Z,8.20
2019-04-07T01:42:31.911Z,8.20
2019-04-07T01:44:42.338Z,8.10
2019-04-07T01:46:47.098Z,8.00
2019-04-07T01:49:01.065Z,7.90
2019-04-07T01:51:17.817Z,8.00
2019-04-07T01:53:25.787Z,8.00
2019-04-07T01:55:30.225Z,7.80
2019-04-07T01:57:50.794Z,7.80
2019-04-07T01:59:58.222Z,7.70
2019-04-07T02:02:02.627Z,7.70
2019-04-07T02:04:23.671Z,7.70
2019-04-07T02:06:31.123Z,7.70
2019-04-07T02:08:51.989Z,7.60
2019-04-07T02:11:11.404Z,7.60
2019-04-07T02:13:28.681Z,7.70
2019-04-07T02:15:51.299Z,7.70
2019-04-07T02:17:59.333Z,7.70
2019-04-07T02:20:07.814Z,7.70
2019-04-07T02:22:12.441Z,7.70
2019-04-07T02:24:16.869Z,7.70
2019-04-07T02:26:24.313Z,7.70
2019-04-07T02:28:35.047Z,7.60
2019-04-07T02:30:52.291Z,7.50
2019-04-07T02:32:56.742Z,7.40
2019-04-07T02:35:03.928Z,7.40
2019-04-07T02:37:12.017Z,7.40
2019-04-07T02:39:17.368Z,7.40
2019-04-07T02:41:26.111Z,7.40
2019-04-07T02:43:48.687Z,7.40
2019-04-07T02:45:59.825Z,7.50
2019-04-07T02:48:07.330Z,7.60
2019-04-07T02:50:12.457Z,7.70
2019-04-07T02:52:35.717Z,7.80
2019-04-07T02:54:43.274Z,7.70
2019-04-07T02:56:48.651Z,7.50
2019-04-07T02:58:53.151Z,7.50
2019-04-07T03:01:14.343Z,7.50
2019-04-07T03:03:18.905Z,7.60
2019-04-07T03:05:33.109Z,7.50
2019-04-07T03:07:37.842Z,7.50
2019-04-07T03:09:45.472Z,7.50
2019-04-07T03:11:53.056Z,7.30
2019-04-07T03:14:03.743Z,7.20
2019-04-07T03:16:08.424Z,7.30
2019-04-07T03:18:31.705Z,7.20
2019-04-07T03:20:36.256Z,7.20
2019-04-07T03:22:47.128Z,7.20
2019-04-07T03:24:58.291Z,7.10
2019-04-07T03:27:15.687Z,7.20
2019-04-07T03:29:20.280Z,7.10
2019-04-07T03:31:29.170Z,7.10
2019-04-07T03:33:51.836Z,6.90
2019-04-07T03:36:07.532Z,7.00
2019-04-07T03:38:17.015Z,7.20
2019-04-07T03:40:36.911Z,7.30
2019-04-07T03:42:57.606Z,7.40
2019-04-07T03:45:02.314Z,7.40
2019-04-07T03:47:07.168Z,7.20
2019-04-07T03:49:17.628Z,7.10
2019-04-07T03:51:24.893Z,7.00
2019-04-07T03:53:30.411Z,7.10
2019-04-07T03:55:40.927Z,7.00
2019-04-07T03:57:46.259Z,6.90
2019-04-07T04:00:08.456Z,6.90
2019-04-07T04:02:29.432Z,6.80
2019-04-07T04:04:39.791Z,6.90
2019-04-07T04:06:56.784Z,7.00
2019-04-07T04:09:02.087Z,6.90
2019-04-07T04:11:06.613Z,6.70
2019-04-07T04:13:17.079Z,6.60
2019-04-07T04:15:24.359Z,6.60
2019-04-07T04:17:28.288Z,6.70
2019-04-07T04:19:31.249Z,6.90
2019-04-07T04:21:34.149Z,7.00
2019-04-07T04:23:38.010Z,7.10
2019-04-07T04:25:41.434Z,7.10
2019-04-07T04:27:44.298Z,6.90
2019-04-07T04:29:51.515Z,6.80
2019-04-07T04:31:52.735Z,6.60
2019-04-07T04:33:55.808Z,6.50
2019-04-07T04:35:59.086Z,6.50
2019-04-07T04:38:02.092Z,6.60
2019-04-07T04:40:06.061Z,6.70
2019-04-07T04:42:08.840Z,6.80
2019-04-07T04:44:11.633Z,6.80
2019-04-07T04:46:15.078Z,6.70
2019-04-07T04:48:18.028Z,6.70
2019-04-07T04:50:21.190Z,6.60
2019-04-07T04:52:24.115Z,6.60
2019-04-07T04:54:27.752Z,6.60
2019-04-07T04:56:30.932Z,6.70
2019-04-07T04:58:34.707Z,6.90
2019-04-07T05:00:38.444Z,7.00
2019-04-07T05:02:41.402Z,7.00
2019-04-07T05:04:44.745Z,6.90
2019-04-07T05:06:47.866Z,6.80
2019-04-07T05:08:51.161Z,6.70
2019-04-07T05:10:54.139Z,6.70
2019-04-07T05:12:57.220Z,6.80
2019-04-07T05:15:00.378Z,6.80
2019-04-07T05:17:03.994Z,6.80
2019-04-07T05:19:06.948Z,6.90
2019-04-07T05:21:09.872Z,6.90
2019-04-07T05:23:13.010Z,7.00
2019-04-07T05:25:15.900Z,7.00
2019-04-07T05:27:18.769Z,7.10
2019-04-07T05:29:21.581Z,7.20
2019-04-07T05:31:24.653Z,7.30
2019-04-07T05:33:27.801Z,7.30
2019-04-07T05:35:30.701Z,7.40
2019-04-07T05:37:34.130Z,7.50
2019-04-07T05:39:37.220Z,7.70
2019-04-07T05:41:40.078Z,7.90
2019-04-07T05:43:42.879Z,8.10
2019-04-07T05:45:46.370Z,8.20
2019-04-07T05:47:50.797Z,8.30
2019-04-07T05:49:57.362Z,8.40
2019-04-07T05:52:01.394Z,8.40
2019-04-07T05:54:02.671Z,8.40
2019-04-07T05:56:06.107Z,8.40
2019-04-07T05:58:09.069Z,8.40
2019-04-07T06:00:15.704Z,8.40
2019-04-07T06:02:17.854Z,8.40
2019-04-07T06:04:20.692Z,8.40
2019-04-07T06:06:23.412Z,8.40
2019-04-07T06:08:33.969Z,8.40
2019-04-07T06:10:30.670Z,8.50
2019-04-07T06:12:33.898Z,8.60
2019-04-07T06:14:36.873Z,8.70
2019-04-07T06:16:39.708Z,8.70
2019-04-07T06:18:43.297Z,8.80
2019-04-07T06:20:46.685Z,8.90
2019-04-07T06:22:52.785Z,9.10
2019-04-07T06:24:53.964Z,9.20
2019-04-07T06:26:57.448Z,9.30
2019-04-07T06:29:00.370Z,9.40
2019-04-07T06:31:03.283Z,9.60
2019-04-07T06:33:07.276Z,9.70
2019-04-07T06:35:12.319Z,9.80
2019-04-07T06:37:14.965Z,9.80
2019-04-07T06:39:19.257Z,9.90
2019-04-07T06:41:27.032Z,9.90
2019-04-07T06:43:27.047Z,10.00
2019-04-07T06:45:31.638Z,10.10
2019-04-07T06:47:37.085Z,10.10
2019-04-07T06:49:58.561Z,10.20
2019-04-07T06:52:04.700Z,10.30
2019-04-07T06:54:12.297Z,10.40
2019-04-07T06:56:17.528Z,10.40
2019-04-07T06:58:41.717Z,10.50
2019-04-07T07:01:03.434Z,10.60
2019-04-07T07:03:16.745Z,10.70
2019-04-07T07:05:38.737Z,10.70
2019-04-07T07:07:55.234Z,10.70
2019-04-07T07:10:06.517Z,10.70
2019-04-07T07:12:19.933Z,10.70
2019-04-07T07:14:35.502Z,10.80
2019-04-07T07:16:46.155Z,10.90
2019-04-07T07:19:01.629Z,10.90
2019-04-07T07:21:08.213Z,11.00
2019-04-07T07:23:15.819Z,11.00
2019-04-07T07:25:18.972Z,11.00
2019-04-07T07:27:21.949Z,11.10
2019-04-07T07:29:26.618Z,11.10
2019-04-07T07:31:29.275Z,11.20
2019-04-07T07:33:32.127Z,11.30
2019-04-07T07:35:34.982Z,11.40
2019-04-07T07:37:37.888Z,11.40
2019-04-07T07:39:42.620Z,11.40
2019-04-07T07:41:45.701Z,11.50
2019-04-07T07:43:48.683Z,11.70
2019-04-07T07:45:52.218Z,11.70
2019-04-07T07:47:55.101Z,11.80
2019-04-07T07:49:58.636Z,11.80
2019-04-07T07:52:01.530Z,11.80
2019-04-07T07:54:04.662Z,11.90
2019-04-07T07:56:11.464Z,12.00
2019-04-07T07:58:12.302Z,12.00
2019-04-07T08:00:15.628Z,12.10
2019-04-07T08:02:19.913Z,12.10
2019-04-07T08:04:26.435Z,12.20
2019-04-07T08:06:27.554Z,12.20
2019-04-07T08:08:30.409Z,12.30
2019-04-07T08:10:33.216Z,12.30
2019-04-07T08:12:36.120Z,12.40
2019-04-07T08:14:38.947Z,12.50
2019-04-07T08:16:42.457Z,12.50
2019-04-07T08:18:46.447Z,12.60
2019-04-07T08:20:50.071Z,12.70
2019-04-07T08:22:52.936Z,12.70
2019-04-07T08:24:55.752Z,12.70
2019-04-07T08:26:59.432Z,12.70
2019-04-07T08:29:05.727Z,12.70
2019-04-07T08:31:07.390Z,12.80
2019-04-07T08:33:10.199Z,12.80
2019-04-07T08:35:13.135Z,12.90
2019-04-07T08:37:16.253Z,12.90
2019-04-07T08:39:24.383Z,13.00
2019-04-07T08:41:23.553Z,13.00
2019-04-07T08:43:26.563Z,13.00
2019-04-07T08:45:31.685Z,13.00
2019-04-07T08:47:34.359Z,13.00
2019-04-07T08:49:38.073Z,13.10
2019-04-07T08:51:41.619Z,13.20
2019-04-07T08:53:45.113Z,13.30
2019-04-07T08:55:49.758Z,13.30
2019-04-07T08:57:52.362Z,13.40
2019-04-07T08:59:55.312Z,13.50
2019-04-07T09:01:58.151Z,13.60
2019-04-07T09:04:01.215Z,13.60
2019-04-07T09:06:04.750Z,13.60
2019-04-07T09:08:07.872Z,13.70
2019-04-07T09:10:12.621Z,13.80
2019-04-07T09:12:15.383Z,13.70
2019-04-07T09:14:18.456Z,13.80
2019-04-07T09:16:23.548Z,13.80
2019-04-07T09:18:30.815Z,13.90
2019-04-07T09:20:46.146Z,14.00
2019-04-07T09:22:53.276Z,14.00
2019-04-07T09:25:09.621Z,14.20
2019-04-07T09:27:20.981Z,14.30
2019-04-07T09:29:26.131Z,14.40
2019-04-07T09:31:33.200Z,14.30
2019-04-07T09:33:48.975Z,14.30
2019-04-07T09:35:56.741Z,14.40
2019-04-07T09:38:14.378Z,14.60
2019-04-07T09:40:18.936Z,14.60
2019-04-07T09:42:25.707Z,14.70
2019-04-07T09:44:33.972Z,14.60
2019-04-07T09:46:48.352Z,14.80
2019-04-07T09:48:59.961Z,15.00
2019-04-07T09:51:07.158Z,15.00
2019-04-07T09:53:17.981Z,15.10
2019-04-07T09:55:36.737Z,15.20
2019-04-07T09:57:57.743Z,15.30
2019-04-07T10:00:07.153Z,15.40
2019-04-07T10:02:16.648Z,15.50
2019-04-07T10:04:21.074Z,15.50
2019-04-07T10:06:39.283Z,15.60
2019-04-07T10:09:01.035Z,15.80
2019-04-07T10:11:08.493Z,15.90
2019-04-07T10:13:13.530Z,15.90
2019-04-07T10:15:18.703Z,15.70
2019-04-07T10:17:23.314Z,15.90
2019-04-07T10:19:43.070Z,16.00
2019-04-07T10:21:47.564Z,16.00
2019-04-07T10:23:55.230Z,16.00
2019-04-07T10:26:00.573Z,16.00
2019-04-07T10:28:12.883Z,16.00
2019-04-07T10:30:21.109Z,16.00
2019-04-07T10:32:28.220Z,16.20
2019-04-07T10:34:49.756Z,16.50
2019-04-07T10:37:04.861Z,16.70
2019-04-07T10:39:09.295Z,16.80
2019-04-07T10:41:30.495Z,16.90
2019-04-07T10:43:42.367Z,16.70
2019-04-07T10:45:50.549Z,16.40
2019-04-07T10:48:01.390Z,16.30
2019-04-07T10:50:24.569Z,16.20
2019-04-07T10:52:37.869Z,16.20
2019-04-07T10:54:45.207Z,16.20
2019-04-07T10:56:49.805Z,16.30
2019-04-07T10:58:56.950Z,16.50
2019-04-07T11:01:01.499Z,16.60
2019-04-07T11:03:23.014Z,16.70
2019-04-07T11:05:27.962Z,16.60
2019-04-07T11:07:44.626Z,16.60
2019-04-07T11:09:52.098Z,16.70
2019-04-07T11:12:08.851Z,16.70
2019-04-07T11:14:29.718Z,16.70
2019-04-07T11:16:46.985Z,16.80
2019-04-07T11:18:51.798Z,16.80
2019-04-07T11:21:09.524Z,16.90
2019-04-07T11:23:14.089Z,17.00
2019-04-07T11:25:21.678Z,17.00
2019-04-07T11:27:42.525Z,17.00
2019-04-07T11:30:05.262Z,16.90
2019-04-07T11:32:24.549Z,16.90
2019-04-07T11:34:47.136Z,16.90
2019-04-07T11:36:51.801Z,16.70
2019-04-07T11:38:56.334Z,16.60
2019-04-07T11:41:01.555Z,16.70
2019-04-07T11:43:09.019Z,16.80
2019-04-07T11:45:25.843Z,17.10
2019-04-07T11:47:42.771Z,17.50
2019-04-07T11:49:47.279Z,17.70
2019-04-07T11:51:52.373Z,17.90
2019-04-07T11:53:57.715Z,17.90
2019-04-07T11:56:11.539Z,17.90
2019-04-07T11:58:32.291Z,18.10
2019-04-07T12:00:51.524Z,18.20
2019-04-07T12:03:02.871Z,18.20
2019-04-07T12:05:08.380Z,18.20
2019-04-07T12:07:25.108Z,18.30
2019-04-07T12:09:30.414Z,18.50
2019-04-07T12:12:02.506Z,18.60
2019-04-07T12:14:07.373Z,18.70
2019-04-07T12:16:11.932Z,18.80
2019-04-07T12:18:18.854Z,18.80
2019-04-07T12:20:32.349Z,18.60
2019-04-07T12:22:45.433Z,18.60
2019-04-07T12:25:03.226Z,18.50
2019-04-07T12:27:17.248Z,18.30
2019-04-07T12:29:25.410Z,18.20
2019-04-07T12:31:29.953Z,18.60
2019-04-07T12:33:37.447Z,18.80
2019-04-07T12:35:50.977Z,18.60
2019-04-07T12:37:52.185Z,18.50
2019-04-07T12:40:09.304Z,18.50
2019-04-07T12:42:14.629Z,18.50
2019-04-07T12:44:21.871Z,18.90
2019-04-07T12:46:26.312Z,19.10
2019-04-07T12:48:37.002Z,19.20
2019-04-07T12:50:54.052Z,19.30
2019-04-07T12:53:08.068Z,19.40
2019-04-07T12:55:16.950Z,19.40
2019-04-07T12:57:18.862Z,19.40
2019-04-07T12:59:23.861Z,19.50
2019-04-07T13:01:48.206Z,19.30
2019-04-07T13:04:03.597Z,19.40
2019-04-07T13:06:14.607Z,19.30
2019-04-07T13:08:22.501Z,19.20
2019-04-07T13:10:42.913Z,19.30
2019-04-07T13:12:53.602Z,19.30
2019-04-07T13:15:00.088Z,19.50
2019-04-07T13:17:07.640Z,19.80
2019-04-07T13:19:21.339Z,19.80
2019-04-07T13:21:34.629Z,19.50
2019-04-07T13:23:51.455Z,19.60
2019-04-07T13:26:05.145Z,19.60
2019-04-07T13:28:12.614Z,19.70
2019-04-07T13:30:18.148Z,19.70
2019-04-07T13:32:37.109Z,19.70
2019-04-07T13:34:49.774Z,19.60
2019-04-07T13:37:12.424Z,19.50
2019-04-07T13:39:39.192Z,19.50
2019-04-07T13:41:47.197Z,19.60
2019-04-07T13:44:07.697Z,19.80
2019-04-07T13:46:19.341Z,19.70
2019-04-07T13:48:21.281Z,19.50
2019-04-07T13:50:42.356Z,19.50
2019-04-07T13:52:48.637Z,19.60
2019-04-07T13:54:53.666Z,19.90
2019-04-07T13:57:04.468Z,19.70
2019-04-07T13:59:14.929Z,19.70
2019-04-07T14:01:32.559Z,19.90
2019-04-07T14:03:40.663Z,20.20
2019-04-07T14:06:04.440Z,20.60
2019-04-07T14:08:27.176Z,20.80
2019-04-07T14:10:35.248Z,21.00
2019-04-07T14:12:54.404Z,21.20
2019-04-07T14:15:15.886Z,21.40
2019-04-07T14:17:37.347Z,21.40
2019-04-07T14:19:54.116Z,21.40
2019-04-07T14:22:02.170Z,21.00
2019-04-07T14:24:23.893Z,20.90
2019-04-07T14:26:30.175Z,20.60
2019-04-07T14:28:50.968Z,20.50
2019-04-07T14:31:13.759Z,20.70
2019-04-07T14:33:28.699Z,20.50
2019-04-07T14:35:33.443Z,20.20
2019-04-07T14:37:43.674Z,20.10
2019-04-07T14:39:56.908Z,20.20
2019-04-07T14:42:18.717Z,20.40
2019-04-07T14:44:25.898Z,20.70
2019-04-07T14:46:37.137Z,20.80
2019-04-07T14:48:58.908Z,20.80
2019-04-07T14:51:19.986Z,21.10
2019-04-07T14:53:27.584Z,21.10
2019-04-07T14:55:32.531Z,21.40
2019-04-07T14:57:41.525Z,21.20
2019-04-07T15:00:03.363Z,20.90
2019-04-07T15:02:07.308Z,20.70
2019-04-07T15:04:10.795Z,20.20
2019-04-07T15:06:13.628Z,19.80
2019-04-07T15:08:18.096Z,19.50
2019-04-07T15:10:25.360Z,19.50
2019-04-07T15:12:39.241Z,19.30
2019-04-07T15:14:42.715Z,19.00
2019-04-07T15:16:45.554Z,18.70
2019-04-07T15:18:48.354Z,18.80
2019-04-07T15:20:51.673Z,19.30
2019-04-07T15:22:54.467Z,20.00
2019-04-07T15:24:58.070Z,20.60
2019-04-07T15:27:00.976Z,21.20
2019-04-07T15:29:06.988Z,21.40
2019-04-07T15:31:08.604Z,21.20
2019-04-07T15:33:11.978Z,21.10
2019-04-07T15:35:15.506Z,20.90
2019-04-07T15:37:21.616Z,20.70
2019-04-07T15:39:25.678Z,20.70
2019-04-07T15:41:28.044Z,20.40
2019-04-07T15:43:33.251Z,20.20
2019-04-07T15:45:36.511Z,20.20
2019-04-07T15:47:40.256Z,20.10
2019-04-07T15:49:43.411Z,19.90
2019-04-07T15:51:46.273Z,19.50
2019-04-07T15:53:51.595Z,19.30
2019-04-07T15:56:02.042Z,19.10
2019-04-07T15:57:59.358Z,18.90
2019-04-07T16:00:04.015Z,18.80
2019-04-07T16:02:10.103Z,18.70
2019-04-07T16:04:11.759Z,18.70
2019-04-07T16:06:16.301Z,18.70
2019-04-07T16:08:20.072Z,19.10
2019-04-07T16:10:23.943Z,19.40
2019-04-07T16:12:27.568Z,19.50
2019-04-07T16:14:30.951Z,19.10
2019-04-07T16:16:33.934Z,18.90
2019-04-07T16:18:39.473Z,18.70
2019-04-07T16:20:41.643Z,18.60
2019-04-07T16:22:47.047Z,18.80
2019-04-07T16:24:51.605Z,19.10
2019-04-07T16:26:53.499Z,19.10
2019-04-07T16:28:57.310Z,19.20
2019-04-07T16:31:00.211Z,19.00
2019-04-07T16:33:05.454Z,18.90
2019-04-07T16:35:10.407Z,18.70
2019-04-07T16:37:12.234Z,18.60
2019-04-07T16:39:15.800Z,18.50
2019-04-07T16:41:18.783Z,18.50
2019-04-07T16:43:24.087Z,18.40
2019-04-07T16:45:27.211Z,18.30
2019-04-07T16:47:34.547Z,18.20
2019-04-07T16:49:34.534Z,18.10
2019-04-07T16:51:38.320Z,18.00
2019-04-07T16:53:42.990Z,17.90
2019-04-07T16:55:48.935Z,17.70
2019-04-07T16:57:50.388Z,17.50
2019-04-07T16:59:54.181Z,17.40
2019-04-07T17:01:58.003Z,17.40
2019-04-07T17:04:00.887Z,17.30
2019-04-07T17:06:03.969Z,17.30
2019-04-07T17:08:07.396Z,17.30
2019-04-07T17:10:11.212Z,17.20
2019-04-07T17:12:14.934Z,17.10
2019-04-07T17:14:18.419Z,17.00
2019-04-07T17:16:24.667Z,16.90
2019-04-07T17:18:36.765Z,16.80
2019-04-07T17:20:39.697Z,16.60
2019-04-07T17:22:45.911Z,16.50
2019-04-07T17:24:47.766Z,16.30
2019-04-07T17:26:50.665Z,16.30
2019-04-07T17:28:55.699Z,16.20
2019-04-07T17:30:59.023Z,16.20
2019-04-07T17:33:03.210Z,16.10
2019-04-07T17:35:08.168Z,16.00
2019-04-07T17:37:11.757Z,16.10
2019-04-07T17:39:19.314Z,16.10
2019-04-07T17:41:22.119Z,16.00
2019-04-07T17:43:40.551Z,15.90
2019-04-07T17:45:37.811Z,15.80
2019-04-07T17:47:45.253Z,15.60
2019-04-07T17:49:56.671Z,15.60
2019-04-07T17:51:59.021Z,15.60
2019-04-07T17:54:03.446Z,15.60
2019-04-07T17:56:20.002Z,15.60
2019-04-07T17:58:26.309Z,15.50
2019-04-07T18:00:50.247Z,15.40
2019-04-07T18:02:57.200Z,15.20
2019-04-07T18:05:06.226Z,15.10
2019-04-07T18:07:27.455Z,14.90
2019-04-07T18:09:44.862Z,14.80
2019-04-07T18:12:01.246Z,14.70
2019-04-07T18:14:11.515Z,14.60
2019-04-07T18:16:17.047Z,14.50
2019-04-07T18:18:26.357Z,14.40
2019-04-07T18:20:46.916Z,14.40
2019-04-07T18:23:07.780Z,14.30
2019-04-07T18:25:32.133Z,14.20
2019-04-07T18:27:38.295Z,14.10
2019-04-07T18:29:52.733Z,14.00
2019-04-07T18:32:14.520Z,13.90
2019-04-07T18:34:25.758Z,13.90
2019-04-07T18:36:40.600Z,13.80
2019-04-07T18:39:03.146Z,13.70
2019-04-07T18:41:11.173Z,13.60
2019-04-07T18:43:32.371Z,13.60
2019-04-07T18:45:36.816Z,13.50
2019-04-07T18:47:52.308Z,13.50
2019-04-07T18:50:12.445Z,13.50
2019-04-07T18:52:20.636Z,13.50
2019-04-07T18:54:25.617Z,13.40
2019-04-07T18:56:42.846Z,13.40
2019-04-07T18:59:04.304Z,13.30
2019-04-07T19:01:18.196Z,13.20
2019-04-07T19:03:25.431Z,13.10
2019-04-07T19:05:39.042Z,13.10
2019-04-07T19:07:48.548Z,13.10
2019-04-07T19:10:09.530Z,13.10
2019-04-07T19:12:18.467Z,13.20
2019-04-07T19:14:40.200Z,13.10
2019-04-07T19:16:49.270Z,13.10
2019-04-07T19:19:08.941Z,13.10
2019-04-07T19:21:16.552Z,13.10
2019-04-07T19:23:36.366Z,13.20
2019-04-07T19:25:57.775Z,13.20
2019-04-07T19:28:09.310Z,13.20
2019-04-07T19:30:26.575Z,13.10
2019-04-07T19:32:46.382Z,13.00
2019-04-07T19:34:50.981Z,13.00
2019-04-07T19:37:15.608Z,12.90
2019-04-07T19:39:24.927Z,12.80
2019-04-07T19:41:35.413Z,12.80
2019-04-07T19:43:45.914Z,12.80
2019-04-07T19:45:55.148Z,12.70
2019-04-07T19:48:16.124Z,12.70
2019-04-07T19:50:37.086Z,12.70
2019-04-07T19:52:47.713Z,12.60
2019-04-07T19:54:55.089Z,12.50
2019-04-07T19:57:15.927Z,12.40
2019-04-07T19:59:20.403Z,12.40
2019-04-07T20:01:29.197Z,12.40
2019-04-07T20:03:37.792Z,12.30
2019-04-07T20:05:40.806Z,12.40
2019-04-07T20:07:48.507Z,12.40
2019-04-07T20:09:53.016Z,12.50
2019-04-07T20:12:00.580Z,12.40
2019-04-07T20:14:18.534Z,12.50
2019-04-07T20:16:35.076Z,12.50
2019-04-07T20:18:45.968Z,12.50
2019-04-07T20:20:50.647Z,12.50
2019-04-07T20:23:02.125Z,12.50
2019-04-07T20:25:19.033Z,12.40
2019-04-07T20:27:26.113Z,12.30
2019-04-07T20:29:34.125Z,12.20
2019-04-07T20:31:54.757Z,12.10
2019-04-07T20:34:05.995Z,12.00
2019-04-07T20:36:27.759Z,11.90
2019-04-07T20:38:32.402Z,11.90
2019-04-07T20:40:52.241Z,11.80
2019-04-07T20:43:08.943Z,11.80
2019-04-07T20:45:17.516Z,11.80
2019-04-07T20:47:23.007Z,11.70
2019-04-07T20:49:44.713Z,11.70
2019-04-07T20:51:55.302Z,11.60
2019-04-07T20:54:11.572Z,11.60
2019-04-07T20:56:25.031Z,11.60
2019-04-07T20:58:55.255Z,11.50
2019-04-07T21:01:04.894Z,11.50
2019-04-07T21:03:20.322Z,11.50
2019-04-07T21:05:25.718Z,11.40
2019-04-07T21:07:41.752Z,11.30
2019-04-07T21:09:48.863Z,11.30
2019-04-07T21:11:56.772Z,11.20
2019-04-07T21:14:04.458Z,11.20
2019-04-07T21:16:11.925Z,11.20
2019-04-07T21:18:32.620Z,11.20
2019-04-07T21:20:38.957Z,11.30
2019-04-07T21:22:44.286Z,11.30
2019-04-07T21:24:58.709Z,11.30
2019-04-07T21:27:06.125Z,11.20
2019-04-07T21:29:22.547Z,11.10
2019-04-07T21:31:33.284Z,11.10
2019-04-07T21:33:56.618Z,11.10
2019-04-07T21:36:09.484Z,11.10
2019-04-07T21:38:13.563Z,11.00
2019-04-07T21:40:24.388Z,11.00
2019-04-07T21:42:34.618Z,11.10
2019-04-07T21:44:55.271Z,11.10
2019-04-07T21:47:17.935Z,11.20
2019-04-07T21:49:32.777Z,11.10
2019-04-07T21:51:46.584Z,11.00
2019-04-07T21:53:49.741Z,10.80
2019-04-07T21:55:54.185Z,10.70
2019-04-07T21:58:08.347Z,10.60
2019-04-07T22:00:16.689Z,10.60
2019-04-07T22:02:31.177Z,10.60
2019-04-07T22:04:54.611Z,10.50
2019-04-07T22:06:59.545Z,10.50
2019-04-07T22:09:23.231Z,10.40
2019-04-07T22:11:28.981Z,10.40
2019-04-07T22:13:32.902Z,10.30
2019-04-07T22:15:43.086Z,10.30
2019-04-07T22:17:40.641Z,10.20
2019-04-07T22:19:46.288Z,10.20
2019-04-07T22:21:48.118Z,10.10
2019-04-07T22:23:50.941Z,10.10
2019-04-07T22:25:54.093Z,10.00
2019-04-07T22:27:57.535Z,9.90
2019-04-07T22:30:02.192Z,9.90
2019-04-07T22:32:05.317Z,9.90
2019-04-07T22:34:08.984Z,9.90
2019-04-07T22:36:14.181Z,9.90
2019-04-07T22:38:17.563Z,9.90
2019-04-07T22:40:21.389Z,9.80
2019-04-07T22:42:24.364Z,9.70
2019-04-07T22:44:27.320Z,9.70
2019-04-07T22:46:30.999Z,9.90
2019-04-07T22:48:34.429Z,9.90
2019-04-07T22:50:38.468Z,9.90
2019-04-07T22:52:41.891Z,10.00
2019-04-07T22:54:44.762Z,10.10
2019-04-07T22:56:47.551Z,10.20
2019-04-07T22:58:50.333Z,10.00
2019-04-07T23:00:54.248Z,9.90
2019-04-07T23:02:57.133Z,10.00
2019-04-07T23:05:00.814Z,10.00
2019-04-07T23:07:04.089Z,9.90
2019-04-07T23:09:07.894Z,9.90
2019-04-07T23:11:10.784Z,9.70
2019-04-07T23:13:13.564Z,9.70
2019-04-07T23:15:16.623Z,9.60
2019-04-07T23:17:19.748Z,9.60
2019-04-07T23:19:22.795Z,9.50
2019-04-07T23:21:25.603Z,9.40
2019-04-07T23:23:28.505Z,9.40
2019-04-07T23:25:32.191Z,9.30
2019-04-07T23:27:35.963Z,9.20
2019-04-07T23:29:38.861Z,9.20
2019-04-07T23:31:41.715Z,9.20
2019-04-07T23:33:44.528Z,9.10
2019-04-07T23:35:47.320Z,9.10
2019-04-07T23:37:50.905Z,9.00
2019-04-07T23:39:53.822Z,9.00
2019-04-07T23:41:57.463Z,9.00
2019-04-07T23:44:00.998Z,9.00
2019-04-07T23:46:05.002Z,9.10
2019-04-07T23:48:08.354Z,9.30
2019-04-07T23:50:11.353Z,9.40
2019-04-07T23:52:14.557Z,9.30
2019-04-07T23:54:18.292Z,9.40
2019-04-07T23:56:21.226Z,9.30
2019-04-07T23:58:24.074Z,9.30
